sensor_id;sensor_type;location;lat;lon;timestamp;P1;durP1;ratioP1;P2;durP2;ratioP2
27269;SDS011;14769;56.934;24.176;2022-11-14T00:00:57;330.27;;;62.53;;
27269;SDS011;14769;56.934;24.176;2022-11-14T00:01:59;365.30;;;69.75;;
27269;SDS011;14769;56.934;24.176;2022-11-14T00:03:02;320.92;;;62.63;;
27269;SDS011;14769;56.934;24.176;2022-11-14T00:04:06;340.88;;;65.13;;
27269;SDS011;14769;56.934;24.176;2022-11-14T00:05:08;283.27;;;55.83;;
27269;SDS011;14769;56.934;24.176;2022-11-14T00:06:10;338.08;;;59.65;;
27269;SDS011;14769;56.934;24.176;2022-11-14T00:07:12;525.42;;;87.53;;
27269;SDS011;14769;56.934;24.176;2022-11-14T00:08:16;505.77;;;83.28;;
27269;SDS011;14769;56.934;24.176;2022-11-14T00:09:26;330.85;;;68.68;;
27269;SDS011;14769;56.934;24.176;2022-11-14T00:10:28;657.28;;;98.78;;
27269;SDS011;14769;56.934;24.176;2022-11-14T00:11:31;343.85;;;69.18;;
27269;SDS011;14769;56.934;24.176;2022-11-14T00:12:33;476.73;;;83.28;;
27269;SDS011;14769;56.934;24.176;2022-11-14T00:13:34;538.08;;;95.78;;
27269;SDS011;14769;56.934;24.176;2022-11-14T00:14:37;512.58;;;85.20;;
27269;SDS011;14769;56.934;24.176;2022-11-14T00:15:39;505.27;;;85.90;;
27269;SDS011;14769;56.934;24.176;2022-11-14T00:16:40;548.22;;;92.15;;
27269;SDS011;14769;56.934;24.176;2022-11-14T00:17:43;252.50;;;59.85;;
27269;SDS011;14769;56.934;24.176;2022-11-14T00:18:45;333.67;;;77.57;;
27269;SDS011;14769;56.934;24.176;2022-11-14T00:19:47;378.52;;;74.35;;
27269;SDS011;14769;56.934;24.176;2022-11-14T00:20:50;217.77;;;49.85;;
27269;SDS011;14769;56.934;24.176;2022-11-14T00:21:53;250.05;;;53.28;;
27269;SDS011;14769;56.934;24.176;2022-11-14T00:22:55;433.67;;;75.07;;
27269;SDS011;14769;56.934;24.176;2022-11-14T00:23:57;535.63;;;87.05;;
27269;SDS011;14769;56.934;24.176;2022-11-14T00:24:59;229.95;;;51.50;;
27269;SDS011;14769;56.934;24.176;2022-11-14T00:26:01;480.63;;;86.22;;
27269;SDS011;14769;56.934;24.176;2022-11-14T00:27:03;632.60;;;93.78;;
27269;SDS011;14769;56.934;24.176;2022-11-14T00:28:05;359.35;;;72.78;;
27269;SDS011;14769;56.934;24.176;2022-11-14T00:29:09;311.67;;;60.63;;
27269;SDS011;14769;56.934;24.176;2022-11-14T00:30:11;199.15;;;47.22;;
27269;SDS011;14769;56.934;24.176;2022-11-14T00:31:13;210.57;;;47.28;;
27269;SDS011;14769;56.934;24.176;2022-11-14T00:32:15;180.77;;;47.30;;
27269;SDS011;14769;56.934;24.176;2022-11-14T00:33:17;232.45;;;57.65;;
27269;SDS011;14769;56.934;24.176;2022-11-14T00:34:21;181.98;;;47.63;;
27269;SDS011;14769;56.934;24.176;2022-11-14T00:35:23;417.52;;;76.78;;
27269;SDS011;14769;56.934;24.176;2022-11-14T00:36:24;360.42;;;76.70;;
27269;SDS011;14769;56.934;24.176;2022-11-14T00:37:27;243.52;;;59.08;;
27269;SDS011;14769;56.934;24.176;2022-11-14T00:38:28;277.33;;;68.70;;
27269;SDS011;14769;56.934;24.176;2022-11-14T00:39:31;459.83;;;77.53;;
27269;SDS011;14769;56.934;24.176;2022-11-14T00:40:32;224.82;;;54.10;;
27269;SDS011;14769;56.934;24.176;2022-11-14T00:41:34;816.97;;;103.82;;
27269;SDS011;14769;56.934;24.176;2022-11-14T00:42:36;146.55;;;42.78;;
27269;SDS011;14769;56.934;24.176;2022-11-14T00:43:38;235.32;;;60.83;;
27269;SDS011;14769;56.934;24.176;2022-11-14T00:44:40;284.65;;;72.53;;
27269;SDS011;14769;56.934;24.176;2022-11-14T00:45:43;222.15;;;56.45;;
27269;SDS011;14769;56.934;24.176;2022-11-14T00:46:45;463.77;;;82.78;;
27269;SDS011;14769;56.934;24.176;2022-11-14T00:47:47;364.92;;;71.38;;
27269;SDS011;14769;56.934;24.176;2022-11-14T00:48:49;435.50;;;67.32;;
27269;SDS011;14769;56.934;24.176;2022-11-14T00:49:51;365.92;;;73.43;;
27269;SDS011;14769;56.934;24.176;2022-11-14T00:50:52;336.55;;;62.80;;
27269;SDS011;14769;56.934;24.176;2022-11-14T00:51:54;504.90;;;79.68;;
27269;SDS011;14769;56.934;24.176;2022-11-14T00:52:56;370.17;;;71.90;;
27269;SDS011;14769;56.934;24.176;2022-11-14T00:53:58;512.20;;;86.03;;
27269;SDS011;14769;56.934;24.176;2022-11-14T00:55:00;224.00;;;60.67;;
27269;SDS011;14769;56.934;24.176;2022-11-14T00:56:02;702.45;;;100.55;;
27269;SDS011;14769;56.934;24.176;2022-11-14T00:57:04;165.60;;;45.47;;
27269;SDS011;14769;56.934;24.176;2022-11-14T00:58:06;528.42;;;81.43;;
27269;SDS011;14769;56.934;24.176;2022-11-14T00:59:08;168.07;;;46.45;;
27269;SDS011;14769;56.934;24.176;2022-11-14T01:00:11;540.75;;;90.20;;
27269;SDS011;14769;56.934;24.176;2022-11-14T01:01:14;715.83;;;102.25;;
27269;SDS011;14769;56.934;24.176;2022-11-14T01:02:16;556.92;;;93.15;;
27269;SDS011;14769;56.934;24.176;2022-11-14T01:03:18;577.83;;;90.32;;
27269;SDS011;14769;56.934;24.176;2022-11-14T01:04:20;880.17;;;114.15;;
27269;SDS011;14769;56.934;24.176;2022-11-14T01:05:23;309.17;;;72.38;;
27269;SDS011;14769;56.934;24.176;2022-11-14T01:06:26;205.02;;;53.00;;
27269;SDS011;14769;56.934;24.176;2022-11-14T01:07:27;161.93;;;45.28;;
27269;SDS011;14769;56.934;24.176;2022-11-14T01:08:30;197.00;;;56.00;;
27269;SDS011;14769;56.934;24.176;2022-11-14T01:09:32;335.92;;;69.38;;
27269;SDS011;14769;56.934;24.176;2022-11-14T01:10:41;582.10;;;94.95;;
27269;SDS011;14769;56.934;24.176;2022-11-14T01:11:44;252.63;;;64.88;;
27269;SDS011;14769;56.934;24.176;2022-11-14T01:12:46;481.50;;;92.78;;
27269;SDS011;14769;56.934;24.176;2022-11-14T01:13:48;569.20;;;96.10;;
27269;SDS011;14769;56.934;24.176;2022-11-14T01:14:50;271.50;;;67.35;;
27269;SDS011;14769;56.934;24.176;2022-11-14T01:15:52;215.65;;;62.47;;
27269;SDS011;14769;56.934;24.176;2022-11-14T01:16:55;224.80;;;65.40;;
27269;SDS011;14769;56.934;24.176;2022-11-14T01:17:57;538.92;;;99.68;;
27269;SDS011;14769;56.934;24.176;2022-11-14T01:18:59;282.25;;;74.32;;
27269;SDS011;14769;56.934;24.176;2022-11-14T01:20:02;320.95;;;74.47;;
27269;SDS011;14769;56.934;24.176;2022-11-14T01:21:06;406.60;;;74.88;;
27269;SDS011;14769;56.934;24.176;2022-11-14T01:22:11;229.75;;;58.28;;
27269;SDS011;14769;56.934;24.176;2022-11-14T01:23:14;604.25;;;93.72;;
27269;SDS011;14769;56.934;24.176;2022-11-14T01:24:16;372.10;;;75.70;;
27269;SDS011;14769;56.934;24.176;2022-11-14T01:25:18;364.88;;;84.32;;
27269;SDS011;14769;56.934;24.176;2022-11-14T01:26:20;447.45;;;84.72;;
27269;SDS011;14769;56.934;24.176;2022-11-14T01:27:23;811.75;;;115.65;;
27269;SDS011;14769;56.934;24.176;2022-11-14T01:28:25;622.28;;;96.95;;
27269;SDS011;14769;56.934;24.176;2022-11-14T01:29:28;425.75;;;77.65;;
27269;SDS011;14769;56.934;24.176;2022-11-14T01:30:30;345.20;;;73.00;;
27269;SDS011;14769;56.934;24.176;2022-11-14T01:31:32;199.52;;;57.13;;
27269;SDS011;14769;56.934;24.176;2022-11-14T01:32:34;437.40;;;90.00;;
27269;SDS011;14769;56.934;24.176;2022-11-14T01:33:36;321.27;;;74.00;;
27269;SDS011;14769;56.934;24.176;2022-11-14T01:34:39;207.95;;;53.38;;
27269;SDS011;14769;56.934;24.176;2022-11-14T01:35:41;176.60;;;49.13;;
27269;SDS011;14769;56.934;24.176;2022-11-14T01:36:43;271.83;;;60.80;;
27269;SDS011;14769;56.934;24.176;2022-11-14T01:37:45;181.85;;;48.38;;
27269;SDS011;14769;56.934;24.176;2022-11-14T01:38:50;402.73;;;70.70;;
27269;SDS011;14769;56.934;24.176;2022-11-14T01:39:53;211.73;;;50.75;;
27269;SDS011;14769;56.934;24.176;2022-11-14T01:40:55;212.13;;;48.88;;
27269;SDS011;14769;56.934;24.176;2022-11-14T01:41:56;405.63;;;69.60;;
27269;SDS011;14769;56.934;24.176;2022-11-14T01:45:54;184.35;;;46.65;;
27269;SDS011;14769;56.934;24.176;2022-11-14T01:47:01;349.05;;;58.55;;
27269;SDS011;14769;56.934;24.176;2022-11-14T01:48:03;385.75;;;63.85;;
27269;SDS011;14769;56.934;24.176;2022-11-14T01:49:07;188.45;;;44.05;;
27269;SDS011;14769;56.934;24.176;2022-11-14T01:50:20;189.15;;;40.65;;
27269;SDS011;14769;56.934;24.176;2022-11-14T01:51:24;149.88;;;35.80;;
27269;SDS011;14769;56.934;24.176;2022-11-14T01:52:36;445.77;;;63.50;;
27269;SDS011;14769;56.934;24.176;2022-11-14T01:53:40;385.63;;;60.55;;
27269;SDS011;14769;56.934;24.176;2022-11-14T01:54:47;214.52;;;42.83;;
27269;SDS011;14769;56.934;24.176;2022-11-14T01:55:53;205.32;;;38.25;;
27269;SDS011;14769;56.934;24.176;2022-11-14T01:56:59;636.70;;;75.90;;
27269;SDS011;14769;56.934;24.176;2022-11-14T01:58:03;257.92;;;45.58;;
27269;SDS011;14769;56.934;24.176;2022-11-14T01:59:07;169.63;;;33.42;;
27269;SDS011;14769;56.934;24.176;2022-11-14T02:00:11;747.47;;;80.63;;
27269;SDS011;14769;56.934;24.176;2022-11-14T02:01:13;219.10;;;42.38;;
27269;SDS011;14769;56.934;24.176;2022-11-14T02:02:18;564.95;;;69.57;;
27269;SDS011;14769;56.934;24.176;2022-11-14T02:03:23;317.13;;;49.80;;
27269;SDS011;14769;56.934;24.176;2022-11-14T02:04:33;312.10;;;42.17;;
27269;SDS011;14769;56.934;24.176;2022-11-14T02:05:39;262.25;;;40.75;;
27269;SDS011;14769;56.934;24.176;2022-11-14T02:06:43;273.65;;;37.42;;
27269;SDS011;14769;56.934;24.176;2022-11-14T02:07:46;758.38;;;74.97;;
27269;SDS011;14769;56.934;24.176;2022-11-14T02:08:48;405.58;;;44.75;;
27269;SDS011;14769;56.934;24.176;2022-11-14T02:09:51;225.57;;;35.00;;
27269;SDS011;14769;56.934;24.176;2022-11-14T02:10:56;266.83;;;40.50;;
27269;SDS011;14769;56.934;24.176;2022-11-14T02:11:58;279.65;;;42.17;;
27269;SDS011;14769;56.934;24.176;2022-11-14T02:13:02;334.45;;;38.70;;
27269;SDS011;14769;56.934;24.176;2022-11-14T02:14:04;245.75;;;32.85;;
27269;SDS011;14769;56.934;24.176;2022-11-14T02:15:08;236.05;;;35.40;;
27269;SDS011;14769;56.934;24.176;2022-11-14T02:16:10;417.55;;;46.58;;
27269;SDS011;14769;56.934;24.176;2022-11-14T02:17:13;298.88;;;35.75;;
27269;SDS011;14769;56.934;24.176;2022-11-14T02:18:32;303.00;;;35.25;;
27269;SDS011;14769;56.934;24.176;2022-11-14T02:19:43;310.50;;;34.25;;
27269;SDS011;14769;56.934;24.176;2022-11-14T02:20:46;305.60;;;36.50;;
27269;SDS011;14769;56.934;24.176;2022-11-14T02:21:48;297.55;;;30.90;;
27269;SDS011;14769;56.934;24.176;2022-11-14T02:22:49;496.90;;;50.20;;
27269;SDS011;14769;56.934;24.176;2022-11-14T02:23:51;324.95;;;34.05;;
27269;SDS011;14769;56.934;24.176;2022-11-14T02:24:53;326.45;;;33.80;;
27269;SDS011;14769;56.934;24.176;2022-11-14T02:25:55;307.63;;;30.30;;
27269;SDS011;14769;56.934;24.176;2022-11-14T02:26:57;294.95;;;30.88;;
27269;SDS011;14769;56.934;24.176;2022-11-14T02:27:59;344.02;;;37.22;;
27269;SDS011;14769;56.934;24.176;2022-11-14T02:29:03;454.58;;;46.03;;
27269;SDS011;14769;56.934;24.176;2022-11-14T02:30:07;370.20;;;37.58;;
27269;SDS011;14769;56.934;24.176;2022-11-14T02:32:38;455.85;;;43.15;;
27269;SDS011;14769;56.934;24.176;2022-11-14T02:34:00;203.95;;;23.00;;
27269;SDS011;14769;56.934;24.176;2022-11-14T02:35:02;229.70;;;24.95;;
27269;SDS011;14769;56.934;24.176;2022-11-14T02:36:04;170.15;;;19.55;;
27269;SDS011;14769;56.934;24.176;2022-11-14T02:37:07;164.15;;;21.08;;
27269;SDS011;14769;56.934;24.176;2022-11-14T02:38:09;177.30;;;19.42;;
27269;SDS011;14769;56.934;24.176;2022-11-14T02:39:11;174.50;;;18.75;;
27269;SDS011;14769;56.934;24.176;2022-11-14T02:40:13;145.15;;;16.55;;
27269;SDS011;14769;56.934;24.176;2022-11-14T02:41:15;191.32;;;18.77;;
27269;SDS011;14769;56.934;24.176;2022-11-14T02:42:17;225.50;;;24.63;;
27269;SDS011;14769;56.934;24.176;2022-11-14T02:43:19;464.77;;;36.20;;
27269;SDS011;14769;56.934;24.176;2022-11-14T02:44:21;233.88;;;24.25;;
27269;SDS011;14769;56.934;24.176;2022-11-14T02:45:23;222.65;;;22.27;;
27269;SDS011;14769;56.934;24.176;2022-11-14T02:46:26;137.45;;;17.02;;
27269;SDS011;14769;56.934;24.176;2022-11-14T02:47:27;222.30;;;20.73;;
27269;SDS011;14769;56.934;24.176;2022-11-14T02:48:29;192.68;;;17.75;;
27269;SDS011;14769;56.934;24.176;2022-11-14T02:49:32;407.65;;;33.65;;
27269;SDS011;14769;56.934;24.176;2022-11-14T02:50:34;152.80;;;18.85;;
27269;SDS011;14769;56.934;24.176;2022-11-14T02:51:36;248.93;;;25.45;;
27269;SDS011;14769;56.934;24.176;2022-11-14T02:52:38;211.02;;;16.45;;
27269;SDS011;14769;56.934;24.176;2022-11-14T02:53:40;224.70;;;22.77;;
27269;SDS011;14769;56.934;24.176;2022-11-14T02:54:42;256.75;;;20.60;;
27269;SDS011;14769;56.934;24.176;2022-11-14T02:55:44;311.55;;;28.80;;
27269;SDS011;14769;56.934;24.176;2022-11-14T02:56:46;194.57;;;19.77;;
27269;SDS011;14769;56.934;24.176;2022-11-14T02:57:48;173.70;;;19.88;;
27269;SDS011;14769;56.934;24.176;2022-11-14T02:58:49;230.38;;;18.52;;
27269;SDS011;14769;56.934;24.176;2022-11-14T02:59:52;226.82;;;19.88;;
27269;SDS011;14769;56.934;24.176;2022-11-14T03:00:54;411.38;;;33.28;;
27269;SDS011;14769;56.934;24.176;2022-11-14T03:02:16;251.20;;;20.02;;
27269;SDS011;14769;56.934;24.176;2022-11-14T03:03:18;219.70;;;18.25;;
27269;SDS011;14769;56.934;24.176;2022-11-14T03:04:20;299.25;;;25.48;;
27269;SDS011;14769;56.934;24.176;2022-11-14T03:05:23;342.95;;;30.33;;
27269;SDS011;14769;56.934;24.176;2022-11-14T03:06:26;214.30;;;18.80;;
27269;SDS011;14769;56.934;24.176;2022-11-14T03:07:28;446.33;;;36.30;;
27269;SDS011;14769;56.934;24.176;2022-11-14T03:08:30;285.92;;;24.27;;
27269;SDS011;14769;56.934;24.176;2022-11-14T03:09:32;263.95;;;23.30;;
27269;SDS011;14769;56.934;24.176;2022-11-14T03:10:34;422.92;;;36.53;;
27269;SDS011;14769;56.934;24.176;2022-11-14T03:11:37;307.23;;;29.52;;
27269;SDS011;14769;56.934;24.176;2022-11-14T03:12:39;460.27;;;37.80;;
27269;SDS011;14769;56.934;24.176;2022-11-14T03:13:41;309.90;;;32.97;;
27269;SDS011;14769;56.934;24.176;2022-11-14T03:14:43;256.88;;;25.38;;
27269;SDS011;14769;56.934;24.176;2022-11-14T03:15:45;638.95;;;51.58;;
27269;SDS011;14769;56.934;24.176;2022-11-14T03:16:47;443.50;;;40.97;;
27269;SDS011;14769;56.934;24.176;2022-11-14T03:17:49;233.13;;;22.83;;
27269;SDS011;14769;56.934;24.176;2022-11-14T03:18:51;280.17;;;25.70;;
27269;SDS011;14769;56.934;24.176;2022-11-14T03:19:54;358.45;;;34.38;;
27269;SDS011;14769;56.934;24.176;2022-11-14T03:20:55;248.10;;;20.67;;
27269;SDS011;14769;56.934;24.176;2022-11-14T03:21:57;323.23;;;29.92;;
27269;SDS011;14769;56.934;24.176;2022-11-14T03:23:00;240.52;;;21.10;;
27269;SDS011;14769;56.934;24.176;2022-11-14T03:24:02;263.00;;;21.73;;
27269;SDS011;14769;56.934;24.176;2022-11-14T03:25:04;444.02;;;36.20;;
27269;SDS011;14769;56.934;24.176;2022-11-14T03:26:07;291.83;;;25.58;;
27269;SDS011;14769;56.934;24.176;2022-11-14T03:27:10;222.43;;;24.90;;
27269;SDS011;14769;56.934;24.176;2022-11-14T03:28:12;217.85;;;18.83;;
27269;SDS011;14769;56.934;24.176;2022-11-14T03:29:14;318.13;;;26.90;;
27269;SDS011;14769;56.934;24.176;2022-11-14T03:30:16;554.42;;;45.05;;
27269;SDS011;14769;56.934;24.176;2022-11-14T03:31:18;474.67;;;39.97;;
27269;SDS011;14769;56.934;24.176;2022-11-14T03:32:20;582.47;;;45.70;;
27269;SDS011;14769;56.934;24.176;2022-11-14T03:33:22;765.22;;;62.83;;
27269;SDS011;14769;56.934;24.176;2022-11-14T03:34:24;374.25;;;30.42;;
27269;SDS011;14769;56.934;24.176;2022-11-14T03:35:27;457.92;;;38.13;;
27269;SDS011;14769;56.934;24.176;2022-11-14T03:36:28;265.17;;;21.10;;
27269;SDS011;14769;56.934;24.176;2022-11-14T03:37:30;267.30;;;20.98;;
27269;SDS011;14769;56.934;24.176;2022-11-14T03:38:32;300.33;;;24.67;;
27269;SDS011;14769;56.934;24.176;2022-11-14T03:39:35;287.05;;;24.98;;
27269;SDS011;14769;56.934;24.176;2022-11-14T03:40:40;516.13;;;45.50;;
27269;SDS011;14769;56.934;24.176;2022-11-14T03:41:42;307.95;;;24.95;;
27269;SDS011;14769;56.934;24.176;2022-11-14T03:42:44;465.15;;;40.03;;
27269;SDS011;14769;56.934;24.176;2022-11-14T03:43:46;272.40;;;23.92;;
27269;SDS011;14769;56.934;24.176;2022-11-14T03:44:48;317.25;;;25.02;;
27269;SDS011;14769;56.934;24.176;2022-11-14T03:45:50;315.65;;;26.10;;
27269;SDS011;14769;56.934;24.176;2022-11-14T03:46:52;341.98;;;24.60;;
27269;SDS011;14769;56.934;24.176;2022-11-14T03:47:54;394.73;;;31.92;;
27269;SDS011;14769;56.934;24.176;2022-11-14T03:48:57;259.50;;;21.75;;
27269;SDS011;14769;56.934;24.176;2022-11-14T03:49:59;293.58;;;23.23;;
27269;SDS011;14769;56.934;24.176;2022-11-14T03:51:01;315.92;;;24.35;;
27269;SDS011;14769;56.934;24.176;2022-11-14T03:52:03;231.60;;;21.42;;
27269;SDS011;14769;56.934;24.176;2022-11-14T03:53:05;281.63;;;22.05;;
27269;SDS011;14769;56.934;24.176;2022-11-14T03:54:08;271.98;;;25.40;;
27269;SDS011;14769;56.934;24.176;2022-11-14T03:55:09;302.52;;;23.38;;
27269;SDS011;14769;56.934;24.176;2022-11-14T03:56:12;268.70;;;20.92;;
27269;SDS011;14769;56.934;24.176;2022-11-14T03:57:14;245.93;;;22.63;;
27269;SDS011;14769;56.934;24.176;2022-11-14T03:58:16;242.13;;;22.17;;
27269;SDS011;14769;56.934;24.176;2022-11-14T03:59:18;323.08;;;24.25;;
27269;SDS011;14769;56.934;24.176;2022-11-14T04:00:20;315.90;;;24.00;;
27269;SDS011;14769;56.934;24.176;2022-11-14T04:01:22;330.42;;;23.95;;
27269;SDS011;14769;56.934;24.176;2022-11-14T04:02:24;274.85;;;20.17;;
27269;SDS011;14769;56.934;24.176;2022-11-14T04:03:26;210.40;;;20.05;;
27269;SDS011;14769;56.934;24.176;2022-11-14T04:04:28;267.15;;;20.55;;
27269;SDS011;14769;56.934;24.176;2022-11-14T04:05:30;403.00;;;31.40;;
27269;SDS011;14769;56.934;24.176;2022-11-14T04:06:32;244.07;;;20.17;;
27269;SDS011;14769;56.934;24.176;2022-11-14T04:07:34;305.83;;;26.25;;
27269;SDS011;14769;56.934;24.176;2022-11-14T04:08:38;277.85;;;28.73;;
27269;SDS011;14769;56.934;24.176;2022-11-14T04:09:40;200.65;;;19.90;;
27269;SDS011;14769;56.934;24.176;2022-11-14T04:10:47;269.83;;;20.65;;
27269;SDS011;14769;56.934;24.176;2022-11-14T04:11:50;257.25;;;25.13;;
27269;SDS011;14769;56.934;24.176;2022-11-14T04:12:52;259.85;;;23.73;;
27269;SDS011;14769;56.934;24.176;2022-11-14T04:13:54;303.55;;;27.55;;
27269;SDS011;14769;56.934;24.176;2022-11-14T04:14:56;206.55;;;18.90;;
27269;SDS011;14769;56.934;24.176;2022-11-14T04:15:58;342.73;;;30.23;;
27269;SDS011;14769;56.934;24.176;2022-11-14T04:17:00;192.35;;;16.92;;
27269;SDS011;14769;56.934;24.176;2022-11-14T04:18:02;201.25;;;19.30;;
27269;SDS011;14769;56.934;24.176;2022-11-14T04:19:04;295.30;;;24.92;;
27269;SDS011;14769;56.934;24.176;2022-11-14T04:20:06;447.20;;;34.83;;
27269;SDS011;14769;56.934;24.176;2022-11-14T04:21:08;238.13;;;21.02;;
27269;SDS011;14769;56.934;24.176;2022-11-14T04:22:10;197.55;;;19.17;;
27269;SDS011;14769;56.934;24.176;2022-11-14T04:23:12;211.00;;;20.40;;
27269;SDS011;14769;56.934;24.176;2022-11-14T04:24:14;235.55;;;23.92;;
27269;SDS011;14769;56.934;24.176;2022-11-14T04:25:17;206.30;;;23.10;;
27269;SDS011;14769;56.934;24.176;2022-11-14T04:26:19;383.20;;;33.33;;
27269;SDS011;14769;56.934;24.176;2022-11-14T04:27:20;333.05;;;29.60;;
27269;SDS011;14769;56.934;24.176;2022-11-14T04:28:22;332.42;;;29.27;;
27269;SDS011;14769;56.934;24.176;2022-11-14T04:29:25;196.73;;;21.88;;
27269;SDS011;14769;56.934;24.176;2022-11-14T04:30:27;390.83;;;33.53;;
27269;SDS011;14769;56.934;24.176;2022-11-14T04:31:34;422.33;;;35.83;;
27269;SDS011;14769;56.934;24.176;2022-11-14T04:32:36;212.82;;;22.17;;
27269;SDS011;14769;56.934;24.176;2022-11-14T04:33:39;209.68;;;25.45;;
27269;SDS011;14769;56.934;24.176;2022-11-14T04:34:41;239.10;;;22.60;;
27269;SDS011;14769;56.934;24.176;2022-11-14T04:35:42;322.23;;;29.48;;
27269;SDS011;14769;56.934;24.176;2022-11-14T04:36:44;171.82;;;19.70;;
27269;SDS011;14769;56.934;24.176;2022-11-14T04:37:46;328.75;;;28.92;;
27269;SDS011;14769;56.934;24.176;2022-11-14T04:38:48;210.93;;;23.77;;
27269;SDS011;14769;56.934;24.176;2022-11-14T04:39:50;336.17;;;29.77;;
27269;SDS011;14769;56.934;24.176;2022-11-14T04:40:52;160.57;;;17.63;;
27269;SDS011;14769;56.934;24.176;2022-11-14T04:41:54;282.52;;;28.80;;
27269;SDS011;14769;56.934;24.176;2022-11-14T04:42:56;173.52;;;20.00;;
27269;SDS011;14769;56.934;24.176;2022-11-14T04:43:58;240.70;;;25.45;;
27269;SDS011;14769;56.934;24.176;2022-11-14T04:45:00;198.48;;;22.00;;
27269;SDS011;14769;56.934;24.176;2022-11-14T04:46:02;97.93;;;12.88;;
27269;SDS011;14769;56.934;24.176;2022-11-14T04:47:04;113.18;;;14.27;;
27269;SDS011;14769;56.934;24.176;2022-11-14T04:48:07;105.22;;;15.18;;
27269;SDS011;14769;56.934;24.176;2022-11-14T04:49:08;124.00;;;16.00;;
27269;SDS011;14769;56.934;24.176;2022-11-14T04:50:10;108.28;;;17.55;;
27269;SDS011;14769;56.934;24.176;2022-11-14T04:51:12;136.35;;;21.20;;
27269;SDS011;14769;56.934;24.176;2022-11-14T04:52:14;104.50;;;13.95;;
27269;SDS011;14769;56.934;24.176;2022-11-14T04:53:16;103.22;;;14.57;;
27269;SDS011;14769;56.934;24.176;2022-11-14T04:54:18;85.50;;;12.32;;
27269;SDS011;14769;56.934;24.176;2022-11-14T04:55:19;83.00;;;11.18;;
27269;SDS011;14769;56.934;24.176;2022-11-14T04:56:21;77.53;;;10.65;;
27269;SDS011;14769;56.934;24.176;2022-11-14T04:57:25;89.68;;;10.23;;
27269;SDS011;14769;56.934;24.176;2022-11-14T04:58:27;111.68;;;11.88;;
27269;SDS011;14769;56.934;24.176;2022-11-14T04:59:30;48.83;;;9.55;;
27269;SDS011;14769;56.934;24.176;2022-11-14T05:00:32;72.28;;;10.15;;
27269;SDS011;14769;56.934;24.176;2022-11-14T05:01:33;102.00;;;14.32;;
27269;SDS011;14769;56.934;24.176;2022-11-14T05:02:35;109.47;;;11.43;;
27269;SDS011;14769;56.934;24.176;2022-11-14T05:03:37;145.88;;;13.25;;
27269;SDS011;14769;56.934;24.176;2022-11-14T05:04:39;174.70;;;14.45;;
27269;SDS011;14769;56.934;24.176;2022-11-14T05:05:41;216.07;;;17.52;;
27269;SDS011;14769;56.934;24.176;2022-11-14T05:06:43;184.60;;;15.38;;
27269;SDS011;14769;56.934;24.176;2022-11-14T05:07:45;98.47;;;10.85;;
27269;SDS011;14769;56.934;24.176;2022-11-14T05:08:47;131.52;;;12.27;;
27269;SDS011;14769;56.934;24.176;2022-11-14T05:09:49;142.05;;;14.35;;
27269;SDS011;14769;56.934;24.176;2022-11-14T05:10:51;185.93;;;19.58;;
27269;SDS011;14769;56.934;24.176;2022-11-14T05:11:53;113.00;;;15.00;;
27269;SDS011;14769;56.934;24.176;2022-11-14T05:12:55;148.65;;;14.65;;
27269;SDS011;14769;56.934;24.176;2022-11-14T05:13:57;75.00;;;10.27;;
27269;SDS011;14769;56.934;24.176;2022-11-14T05:14:58;232.48;;;21.05;;
27269;SDS011;14769;56.934;24.176;2022-11-14T05:16:01;154.38;;;15.52;;
27269;SDS011;14769;56.934;24.176;2022-11-14T05:17:02;156.40;;;16.90;;
27269;SDS011;14769;56.934;24.176;2022-11-14T05:18:04;140.02;;;15.13;;
27269;SDS011;14769;56.934;24.176;2022-11-14T05:19:06;103.82;;;13.75;;
27269;SDS011;14769;56.934;24.176;2022-11-14T05:20:08;153.40;;;17.85;;
27269;SDS011;14769;56.934;24.176;2022-11-14T05:21:14;173.10;;;21.20;;
27269;SDS011;14769;56.934;24.176;2022-11-14T05:22:16;105.60;;;12.65;;
27269;SDS011;14769;56.934;24.176;2022-11-14T05:23:19;153.82;;;15.70;;
27269;SDS011;14769;56.934;24.176;2022-11-14T05:24:23;116.22;;;16.38;;
27269;SDS011;14769;56.934;24.176;2022-11-14T05:25:28;106.95;;;15.15;;
27269;SDS011;14769;56.934;24.176;2022-11-14T05:26:53;126.63;;;17.05;;
27269;SDS011;14769;56.934;24.176;2022-11-14T05:27:55;188.45;;;22.35;;
27269;SDS011;14769;56.934;24.176;2022-11-14T05:28:57;126.15;;;15.13;;
27269;SDS011;14769;56.934;24.176;2022-11-14T05:29:59;228.23;;;19.95;;
27269;SDS011;14769;56.934;24.176;2022-11-14T05:31:07;108.57;;;14.52;;
27269;SDS011;14769;56.934;24.176;2022-11-14T05:32:11;173.70;;;18.23;;
27269;SDS011;14769;56.934;24.176;2022-11-14T05:33:16;106.00;;;14.20;;
27269;SDS011;14769;56.934;24.176;2022-11-14T05:34:18;131.75;;;13.85;;
27269;SDS011;14769;56.934;24.176;2022-11-14T05:35:20;205.13;;;20.67;;
27269;SDS011;14769;56.934;24.176;2022-11-14T05:36:22;153.23;;;16.35;;
27269;SDS011;14769;56.934;24.176;2022-11-14T05:37:24;181.85;;;19.30;;
27269;SDS011;14769;56.934;24.176;2022-11-14T05:38:26;158.35;;;16.75;;
27269;SDS011;14769;56.934;24.176;2022-11-14T05:39:29;267.33;;;24.77;;
27269;SDS011;14769;56.934;24.176;2022-11-14T05:40:32;249.77;;;20.48;;
27269;SDS011;14769;56.934;24.176;2022-11-14T05:41:34;126.40;;;14.27;;
27269;SDS011;14769;56.934;24.176;2022-11-14T05:42:36;148.55;;;13.95;;
27269;SDS011;14769;56.934;24.176;2022-11-14T05:43:38;256.75;;;23.77;;
27269;SDS011;14769;56.934;24.176;2022-11-14T05:44:41;170.07;;;13.98;;
27269;SDS011;14769;56.934;24.176;2022-11-14T05:45:43;202.65;;;19.98;;
27269;SDS011;14769;56.934;24.176;2022-11-14T05:46:44;150.25;;;14.07;;
27269;SDS011;14769;56.934;24.176;2022-11-14T05:47:47;182.25;;;13.65;;
27269;SDS011;14769;56.934;24.176;2022-11-14T05:48:49;159.60;;;14.88;;
27269;SDS011;14769;56.934;24.176;2022-11-14T05:49:51;147.25;;;11.95;;
27269;SDS011;14769;56.934;24.176;2022-11-14T05:50:53;169.27;;;13.88;;
27269;SDS011;14769;56.934;24.176;2022-11-14T05:51:56;162.07;;;13.60;;
27269;SDS011;14769;56.934;24.176;2022-11-14T05:52:58;154.80;;;13.85;;
27269;SDS011;14769;56.934;24.176;2022-11-14T05:54:00;169.48;;;15.60;;
27269;SDS011;14769;56.934;24.176;2022-11-14T05:55:02;164.10;;;15.55;;
27269;SDS011;14769;56.934;24.176;2022-11-14T05:56:09;287.83;;;23.85;;
27269;SDS011;14769;56.934;24.176;2022-11-14T05:57:12;288.45;;;21.77;;
27269;SDS011;14769;56.934;24.176;2022-11-14T05:58:14;143.63;;;16.08;;
27269;SDS011;14769;56.934;24.176;2022-11-14T05:59:16;213.63;;;18.15;;
27269;SDS011;14769;56.934;24.176;2022-11-14T06:00:18;176.88;;;14.65;;
27269;SDS011;14769;56.934;24.176;2022-11-14T06:01:20;285.52;;;23.33;;